createdAt,value
2023-02-12T01:02:15.173Z,94404.00
2023-02-12T01:03:15.212Z,94404.00
2023-02-12T01:04:15.263Z,94406.00
2023-02-12T01:05:15.380Z,94402.00
2023-02-12T01:06:15.339Z,94406.00
2023-02-12T01:07:15.398Z,94406.00
2023-02-12T01:08:15.509Z,94406.00
2023-02-12T01:09:15.491Z,94408.00
2023-02-12T01:10:15.528Z,94406.00
2023-02-12T01:11:15.579Z,94406.00
2023-02-12T01:12:15.634Z,94406.00
2023-02-12T01:13:15.681Z,94406.00
2023-02-12T01:14:15.726Z,94406.00
2023-02-12T01:15:15.797Z,94406.00
2023-02-12T01:19:15.953Z,94402.00
2023-02-12T01:20:16.006Z,94400.00
2023-02-12T01:21:16.040Z,94398.00
2023-02-12T01:22:16.091Z,94396.00
2023-02-12T01:23:16.145Z,94394.00
2023-02-12T01:24:16.181Z,94394.00
2023-02-12T01:25:18.142Z,94394.00
2023-02-12T01:26:16.212Z,94396.00
2023-02-12T01:27:16.206Z,94398.00
2023-02-12T01:28:16.211Z,94398.00
2023-02-12T01:29:16.196Z,94392.00
2023-02-12T01:30:16.204Z,94390.00
2023-02-12T01:31:16.272Z,94388.00
2023-02-12T01:32:16.249Z,94386.00
2023-02-12T01:33:16.167Z,94382.00
2023-02-12T01:34:16.158Z,94384.00
2023-02-12T01:35:16.145Z,94386.00
2023-02-12T01:36:16.143Z,94382.00
2023-02-12T01:37:16.134Z,94384.00
2023-02-12T01:38:16.174Z,94384.00
2023-02-12T01:39:16.125Z,94386.00
2023-02-12T01:40:16.161Z,94386.00
2023-02-12T01:41:16.108Z,94390.00
2023-02-12T01:42:16.104Z,94390.00
2023-02-12T01:43:16.102Z,94390.00
2023-02-12T01:44:16.123Z,94388.00
2023-02-12T01:45:16.089Z,94384.00
2023-02-12T01:46:16.117Z,94384.00
2023-02-12T01:47:16.072Z,94382.00
2023-02-12T01:48:16.069Z,94382.00
2023-02-12T01:49:16.069Z,94382.00
2023-02-12T01:50:16.057Z,94380.00
2023-02-12T01:51:16.048Z,94382.00
2023-02-12T01:52:16.051Z,94388.00
2023-02-12T01:53:16.117Z,94388.00
2023-02-12T01:54:16.025Z,94386.00
2023-02-12T01:55:16.023Z,94386.00
2023-02-12T01:56:16.016Z,94386.00
2023-02-12T01:57:16.013Z,94384.00
2023-02-12T01:58:16.012Z,94386.00
2023-02-12T01:59:15.995Z,94386.00
2023-02-12T02:00:16.010Z,94388.00
2023-02-12T02:01:16.019Z,94386.00
2023-02-12T02:02:16.046Z,94386.00
2023-02-12T02:03:16.002Z,94386.00
2023-02-12T02:04:15.961Z,94386.00
2023-02-12T02:05:15.965Z,94386.00
2023-02-12T02:06:15.950Z,94384.00
2023-02-12T02:07:15.961Z,94380.00
2023-02-12T02:08:16.030Z,94377.00
2023-02-12T02:09:16.073Z,94378.00
2023-02-12T02:10:16.136Z,94377.00
2023-02-12T02:11:16.206Z,94377.00
2023-02-12T02:12:16.247Z,94378.00
2023-02-12T02:13:16.303Z,94382.00
2023-02-12T02:14:16.348Z,94380.00
2023-02-12T02:15:16.403Z,94382.00
2023-02-12T02:16:16.486Z,94382.00
2023-02-12T02:17:16.492Z,94382.00
2023-02-12T02:18:16.532Z,94380.00
2023-02-12T02:19:16.602Z,94378.00
2023-02-12T02:20:16.652Z,94377.00
2023-02-12T02:21:16.694Z,94375.00
2023-02-12T02:22:16.746Z,94373.00
2023-02-12T02:23:16.793Z,94375.00
2023-02-12T02:24:16.852Z,94373.00
2023-02-12T02:25:17.880Z,94371.00
2023-02-12T02:26:16.963Z,94363.00
2023-02-12T02:27:17.065Z,94359.00
2023-02-12T02:28:17.112Z,94361.00
2023-02-12T02:29:17.120Z,94361.00
2023-02-12T02:30:17.170Z,94359.00
2023-02-12T02:31:17.381Z,94361.00
2023-02-12T02:32:17.299Z,94359.00
2023-02-12T02:33:17.342Z,94359.00
2023-02-12T02:34:17.509Z,94359.00
2023-02-12T02:35:17.453Z,94357.00
2023-02-12T02:36:17.512Z,94355.00
2023-02-12T02:37:17.601Z,94355.00
2023-02-12T02:38:17.606Z,94355.00
2023-02-12T02:39:17.657Z,94351.00
2023-02-12T03:50:21.491Z,94382.00
2023-02-12T03:51:21.552Z,94384.00
2023-02-12T04:09:22.540Z,94388.00
2023-02-12T04:10:22.596Z,94392.00
2023-02-12T04:56:25.171Z,94433.00
2023-02-12T04:57:25.208Z,94431.00
2023-02-12T04:58:25.267Z,94435.00
2023-02-12T04:59:25.330Z,94435.00
2023-02-12T05:00:25.372Z,94435.00
2023-02-12T05:01:25.463Z,94435.00
2023-02-12T05:02:25.478Z,94435.00
2023-02-12T05:03:25.540Z,94435.00
2023-02-12T05:04:25.593Z,94437.00
2023-02-12T05:05:25.732Z,94439.00
2023-02-12T05:06:25.707Z,94439.00
2023-02-12T05:07:25.757Z,94441.00
2023-02-12T05:08:25.818Z,94441.00
2023-02-12T05:09:25.880Z,94439.00
2023-02-12T05:10:25.939Z,94439.00
2023-02-12T05:11:25.988Z,94437.00
2023-02-12T05:12:26.049Z,94437.00
2023-02-12T05:13:26.108Z,94437.00
2023-02-12T05:14:26.168Z,94439.00
2023-02-12T05:15:26.247Z,94441.00
2023-02-12T05:16:26.290Z,94443.00
2023-02-12T05:17:26.355Z,94441.00
2023-02-12T05:18:26.406Z,94441.00
2023-02-12T05:19:26.476Z,94441.00
2023-02-12T05:20:26.525Z,94439.00
2023-02-12T05:21:26.580Z,94439.00
2023-02-12T05:22:26.725Z,94441.00
2023-02-12T07:47:36.046Z,94541.00
2023-02-12T07:50:35.185Z,94539.00
2023-02-12T07:51:35.323Z,94539.00
2023-02-12T07:52:35.322Z,94539.00
2023-02-12T07:53:35.361Z,94539.00
2023-02-12T07:54:35.419Z,94539.00
2023-02-12T07:55:35.471Z,94539.00
2023-02-12T07:56:35.523Z,94539.00
2023-02-12T07:57:35.598Z,94539.00
2023-02-12T07:58:35.643Z,94539.00
2023-02-12T07:59:35.704Z,94541.00
2023-02-12T08:00:35.755Z,94539.00
2023-02-12T08:01:35.804Z,94541.00
2023-02-12T08:02:35.891Z,94541.00
2023-02-12T08:03:35.910Z,94541.00
2023-02-12T08:04:36.005Z,94539.00
2023-02-12T08:05:36.029Z,94539.00
2023-02-12T08:06:36.138Z,94539.00
2023-02-12T08:07:36.155Z,94539.00
2023-02-12T08:08:36.205Z,94537.00
2023-02-12T08:09:36.502Z,94535.00
2023-02-12T08:10:36.317Z,94535.00
2023-02-12T08:11:36.363Z,94537.00
2023-02-12T08:12:36.422Z,94537.00
2023-02-12T08:13:36.491Z,94541.00
2023-02-12T08:14:36.527Z,94539.00
2023-02-12T08:15:36.571Z,94543.00
2023-02-12T08:16:36.690Z,94543.00
2023-02-12T12:20:45.158Z,94230.00
2023-02-12T12:21:45.184Z,94231.00
2023-02-12T12:22:45.248Z,94230.00
2023-02-12T12:23:45.277Z,94228.00
2023-02-12T12:24:45.319Z,94228.00
2023-02-12T12:25:45.341Z,94224.00
2023-02-12T12:28:45.421Z,94224.00
2023-02-12T12:29:45.446Z,94224.00
2023-02-12T12:30:45.508Z,94224.00
2023-02-12T12:31:45.522Z,94224.00
2023-02-12T12:32:46.097Z,94222.00
2023-02-12T12:33:45.502Z,94222.00
2023-02-12T12:34:45.501Z,94222.00
2023-02-12T12:35:45.499Z,94222.00
2023-02-12T12:36:45.496Z,94222.00
2023-02-12T12:37:45.490Z,94220.00
2023-02-12T12:38:45.494Z,94214.00
2023-02-12T12:47:45.505Z,94206.00
2023-02-12T12:48:45.503Z,94206.00
2023-02-12T12:49:45.501Z,94206.00
2023-02-12T12:50:45.509Z,94206.00
2023-02-12T12:51:45.507Z,94204.00
2023-02-12T12:52:45.506Z,94204.00
2023-02-12T12:53:45.517Z,94200.00
2023-02-12T12:54:45.540Z,94200.00
2023-02-12T12:55:45.541Z,94196.00
2023-02-12T12:56:45.528Z,94198.00
2023-02-12T12:57:45.538Z,94192.00
2023-02-12T12:58:45.546Z,94196.00
2023-02-12T12:59:45.559Z,94194.00
2023-02-12T13:00:45.623Z,94190.00
2023-02-12T13:01:45.586Z,94190.00
2023-02-12T13:02:45.700Z,94186.00
2023-02-12T13:03:45.606Z,94186.00
2023-02-12T13:04:45.644Z,94184.00
2023-02-12T13:05:47.547Z,94183.00
2023-02-12T13:06:45.651Z,94181.00
2023-02-12T13:07:45.665Z,94179.00
2023-02-12T13:08:45.692Z,94181.00
2023-02-12T13:09:45.710Z,94177.00
2023-02-12T13:10:45.722Z,94177.00
2023-02-12T13:11:45.735Z,94173.00
2023-02-12T13:12:45.753Z,94173.00
2023-02-12T13:13:45.779Z,94171.00
2023-02-12T13:14:45.797Z,94171.00
2023-02-12T13:15:45.826Z,94169.00
2023-02-12T13:16:45.867Z,94167.00
2023-02-12T13:17:45.926Z,94163.00
2023-02-12T13:18:45.903Z,94165.00
2023-02-12T13:19:45.932Z,94161.00
2023-02-12T13:20:45.953Z,94159.00
2023-02-12T13:21:45.991Z,94161.00
2023-02-12T13:22:46.018Z,94159.00
2023-02-12T13:23:46.039Z,94159.00
2023-02-12T13:24:46.134Z,94161.00
2023-02-12T13:25:46.077Z,94155.00
2023-02-12T13:26:46.111Z,94157.00
2023-02-12T13:27:46.128Z,94159.00
2023-02-12T13:28:46.168Z,94155.00
2023-02-12T13:29:46.187Z,94153.00
2023-02-12T13:30:46.358Z,94153.00
2023-02-12T13:31:46.375Z,94153.00
2023-02-12T13:32:46.289Z,94147.00
2023-02-12T13:33:46.311Z,94149.00
2023-02-12T13:34:46.340Z,94151.00
2023-02-12T13:35:46.380Z,94153.00
2023-02-12T13:36:46.406Z,94153.00
2023-02-12T13:37:46.540Z,94155.00
2023-02-12T13:38:46.478Z,94155.00
2023-02-12T13:39:46.499Z,94155.00
2023-02-12T13:40:46.545Z,94157.00
2023-02-12T13:41:46.576Z,94157.00
2023-02-12T13:42:46.625Z,94159.00
2023-02-12T13:43:46.674Z,94161.00
2023-02-12T13:44:46.799Z,94163.00
2023-02-12T13:45:46.776Z,94159.00
2023-02-12T13:46:46.798Z,94159.00
2023-02-12T18:15:00.486Z,94386.00
2023-02-12T18:15:55.551Z,94384.00
2023-02-12T18:28:55.243Z,94392.00
2023-02-12T18:47:55.184Z,94404.00
2023-02-12T18:48:55.182Z,94404.00
2023-02-12T18:49:55.212Z,94404.00
2023-02-12T18:50:55.678Z,94406.00
2023-02-12T18:51:55.275Z,94406.00
2023-02-12T18:52:55.322Z,94404.00
2023-02-12T18:53:55.352Z,94404.00
2023-02-12T18:54:55.385Z,94404.00
2023-02-12T18:55:55.425Z,94406.00
2023-02-12T18:56:55.520Z,94408.00
2023-02-12T18:57:55.516Z,94406.00
2023-02-12T18:58:55.528Z,94406.00
2023-02-12T23:08:05.153Z,94473.00
2023-02-12T23:09:05.215Z,94475.00
2023-02-12T23:10:05.296Z,94475.00
2023-02-12T23:11:07.091Z,94473.00
2023-02-12T23:12:05.364Z,94475.00
2023-02-12T23:13:05.396Z,94475.00
2023-02-12T23:14:05.341Z,94475.00
2023-02-12T23:16:05.298Z,94475.00
2023-02-12T23:17:05.318Z,94469.00
2023-02-12T23:18:05.274Z,94475.00
2023-02-12T23:19:05.269Z,94471.00
2023-02-12T23:20:05.320Z,94469.00
2023-02-12T23:21:05.328Z,94477.00
2023-02-12T23:22:05.256Z,94471.00
2023-02-12T23:23:05.250Z,94471.00
2023-02-12T23:24:05.246Z,94473.00
2023-02-12T23:25:05.255Z,94473.00
2023-02-12T23:26:05.243Z,94475.00
2023-02-12T23:27:05.252Z,94473.00
2023-02-12T23:28:05.272Z,94475.00
2023-02-12T23:29:05.220Z,94475.00
2023-02-12T23:30:05.219Z,94473.00
2023-02-12T23:31:05.359Z,94475.00
2023-02-12T23:32:05.212Z,94473.00
2023-02-12T23:33:05.200Z,94471.00
2023-02-12T23:34:05.189Z,94473.00
2023-02-12T23:35:05.206Z,94469.00
2023-02-12T23:36:05.191Z,94469.00
2023-02-12T23:37:05.193Z,94467.00
2023-02-12T23:38:05.173Z,94467.00
2023-02-12T23:39:05.155Z,94467.00
2023-02-12T23:40:05.159Z,94469.00
2023-02-12T23:44:05.898Z,94469.00
2023-02-12T23:50:05.168Z,94467.00
2023-02-12T23:51:05.238Z,94465.00
2023-02-12T23:52:05.855Z,94463.00
2023-02-12T23:53:05.348Z,94463.00
2023-02-12T23:54:05.437Z,94465.00
2023-02-12T23:55:05.483Z,94465.00
2023-02-12T23:56:06.359Z,94463.00
2023-02-12T23:57:05.590Z,94461.00
2023-02-12T23:58:05.683Z,94459.00
2023-02-12T23:59:06.352Z,94461.00
